sensor_id;sensor_type;location;lat;lon;timestamp;P1;durP1;ratioP1;P2;durP2;ratioP2
61272;SDS011;47150;53.032;8.960;2023-04-24T00:00:26;0.20;;;0.20;;
61272;SDS011;47150;53.032;8.960;2023-04-24T00:02:52;0.20;;;0.20;;
61272;SDS011;47150;53.032;8.960;2023-04-24T00:05:21;0.10;;;0.10;;
61272;SDS011;47150;53.032;8.960;2023-04-24T00:07:47;0.10;;;0.10;;
61272;SDS011;47150;53.032;8.960;2023-04-24T00:10:12;0.10;;;0.10;;
61272;SDS011;47150;53.032;8.960;2023-04-24T00:12:38;0.10;;;0.10;;
61272;SDS011;47150;53.032;8.960;2023-04-24T00:15:03;0.10;;;0.10;;
61272;SDS011;47150;53.032;8.960;2023-04-24T00:17:29;0.33;;;0.33;;
61272;SDS011;47150;53.032;8.960;2023-04-24T00:19:55;0.10;;;0.10;;
61272;SDS011;47150;53.032;8.960;2023-04-24T00:22:24;0.17;;;0.17;;
61272;SDS011;47150;53.032;8.960;2023-04-24T00:24:50;0.13;;;0.13;;
61272;SDS011;47150;53.032;8.960;2023-04-24T00:27:15;0.27;;;0.27;;
61272;SDS011;47150;53.032;8.960;2023-04-24T00:29:40;0.10;;;0.10;;
61272;SDS011;47150;53.032;8.960;2023-04-24T00:32:06;0.10;;;0.10;;
61272;SDS011;47150;53.032;8.960;2023-04-24T00:34:31;0.23;;;0.23;;
61272;SDS011;47150;53.032;8.960;2023-04-24T00:36:57;0.27;;;0.27;;
61272;SDS011;47150;53.032;8.960;2023-04-24T00:39:23;0.30;;;0.30;;
61272;SDS011;47150;53.032;8.960;2023-04-24T00:41:48;0.30;;;0.30;;
61272;SDS011;47150;53.032;8.960;2023-04-24T00:44:14;0.10;;;0.10;;
61272;SDS011;47150;53.032;8.960;2023-04-24T00:46:40;0.20;;;0.20;;
61272;SDS011;47150;53.032;8.960;2023-04-24T00:49:05;0.63;;;0.63;;
61272;SDS011;47150;53.032;8.960;2023-04-24T00:51:31;1.20;;;1.10;;
61272;SDS011;47150;53.032;8.960;2023-04-24T00:53:57;0.80;;;0.80;;
61272;SDS011;47150;53.032;8.960;2023-04-24T00:56:26;0.40;;;0.40;;
61272;SDS011;47150;53.032;8.960;2023-04-24T00:58:52;0.40;;;0.40;;
61272;SDS011;47150;53.032;8.960;2023-04-24T01:01:21;0.50;;;0.50;;
61272;SDS011;47150;53.032;8.960;2023-04-24T01:03:48;0.90;;;0.47;;
61272;SDS011;47150;53.032;8.960;2023-04-24T01:06:15;0.30;;;0.30;;
61272;SDS011;47150;53.032;8.960;2023-04-24T01:08:42;0.20;;;0.20;;
61272;SDS011;47150;53.032;8.960;2023-04-24T01:11:09;0.40;;;0.40;;
61272;SDS011;47150;53.032;8.960;2023-04-24T01:13:34;0.50;;;0.50;;
61272;SDS011;47150;53.032;8.960;2023-04-24T01:16:00;0.83;;;0.83;;
61272;SDS011;47150;53.032;8.960;2023-04-24T01:18:26;0.30;;;0.30;;
61272;SDS011;47150;53.032;8.960;2023-04-24T01:20:53;0.30;;;0.30;;
61272;SDS011;47150;53.032;8.960;2023-04-24T01:23:21;0.40;;;0.40;;
61272;SDS011;47150;53.032;8.960;2023-04-24T01:25:47;0.60;;;0.60;;
61272;SDS011;47150;53.032;8.960;2023-04-24T01:28:14;0.70;;;0.70;;
61272;SDS011;47150;53.032;8.960;2023-04-24T01:30:40;0.20;;;0.20;;
61272;SDS011;47150;53.032;8.960;2023-04-24T01:33:06;0.63;;;0.30;;
61272;SDS011;47150;53.032;8.960;2023-04-24T01:35:31;0.50;;;0.50;;
61272;SDS011;47150;53.032;8.960;2023-04-24T01:37:57;1.70;;;0.43;;
61272;SDS011;47150;53.032;8.960;2023-04-24T01:40:22;0.20;;;0.20;;
61272;SDS011;47150;53.032;8.960;2023-04-24T01:42:48;0.17;;;0.17;;
61272;SDS011;47150;53.032;8.960;2023-04-24T01:45:13;0.20;;;0.20;;
61272;SDS011;47150;53.032;8.960;2023-04-24T01:47:39;0.50;;;0.50;;
61272;SDS011;47150;53.032;8.960;2023-04-24T01:50:05;0.50;;;0.50;;
61272;SDS011;47150;53.032;8.960;2023-04-24T01:52:31;0.63;;;0.63;;
61272;SDS011;47150;53.032;8.960;2023-04-24T01:55:01;0.47;;;0.47;;
61272;SDS011;47150;53.032;8.960;2023-04-24T01:57:30;0.20;;;0.20;;
61272;SDS011;47150;53.032;8.960;2023-04-24T01:59:56;0.10;;;0.10;;
61272;SDS011;47150;53.032;8.960;2023-04-24T02:02:22;0.60;;;0.47;;
61272;SDS011;47150;53.032;8.960;2023-04-24T02:04:49;5.63;;;1.07;;
61272;SDS011;47150;53.032;8.960;2023-04-24T02:07:15;0.20;;;0.20;;
61272;SDS011;47150;53.032;8.960;2023-04-24T02:09:40;0.30;;;0.30;;
61272;SDS011;47150;53.032;8.960;2023-04-24T02:12:06;0.40;;;0.40;;
61272;SDS011;47150;53.032;8.960;2023-04-24T02:14:31;0.20;;;0.20;;
61272;SDS011;47150;53.032;8.960;2023-04-24T02:16:57;0.20;;;0.20;;
61272;SDS011;47150;53.032;8.960;2023-04-24T02:19:22;0.23;;;0.23;;
61272;SDS011;47150;53.032;8.960;2023-04-24T02:21:48;0.57;;;0.57;;
61272;SDS011;47150;53.032;8.960;2023-04-24T02:24:13;1.10;;;1.00;;
61272;SDS011;47150;53.032;8.960;2023-04-24T02:26:38;0.90;;;0.90;;
61272;SDS011;47150;53.032;8.960;2023-04-24T02:29:04;0.10;;;0.10;;
61272;SDS011;47150;53.032;8.960;2023-04-24T02:31:29;0.40;;;0.40;;
61272;SDS011;47150;53.032;8.960;2023-04-24T02:33:54;0.30;;;0.30;;
61272;SDS011;47150;53.032;8.960;2023-04-24T02:36:20;0.33;;;0.33;;
61272;SDS011;47150;53.032;8.960;2023-04-24T02:38:46;0.50;;;0.50;;
61272;SDS011;47150;53.032;8.960;2023-04-24T02:41:11;0.30;;;0.30;;
61272;SDS011;47150;53.032;8.960;2023-04-24T02:43:36;0.70;;;0.70;;
61272;SDS011;47150;53.032;8.960;2023-04-24T02:46:02;1.40;;;0.80;;
61272;SDS011;47150;53.032;8.960;2023-04-24T02:48:27;0.77;;;0.77;;
61272;SDS011;47150;53.032;8.960;2023-04-24T02:50:53;1.07;;;0.97;;
61272;SDS011;47150;53.032;8.960;2023-04-24T02:53:19;0.50;;;0.50;;
61272;SDS011;47150;53.032;8.960;2023-04-24T02:55:44;0.93;;;0.93;;
61272;SDS011;47150;53.032;8.960;2023-04-24T02:58:10;0.57;;;0.57;;
61272;SDS011;47150;53.032;8.960;2023-04-24T03:00:37;0.20;;;0.20;;
61272;SDS011;47150;53.032;8.960;2023-04-24T03:03:03;1.10;;;1.00;;
61272;SDS011;47150;53.032;8.960;2023-04-24T03:05:28;0.30;;;0.30;;
61272;SDS011;47150;53.032;8.960;2023-04-24T03:07:55;0.10;;;0.10;;
61272;SDS011;47150;53.032;8.960;2023-04-24T03:10:21;0.30;;;0.30;;
61272;SDS011;47150;53.032;8.960;2023-04-24T03:12:47;0.43;;;0.40;;
61272;SDS011;47150;53.032;8.960;2023-04-24T03:15:13;0.50;;;0.50;;
61272;SDS011;47150;53.032;8.960;2023-04-24T03:17:38;0.87;;;0.87;;
61272;SDS011;47150;53.032;8.960;2023-04-24T03:20:03;0.10;;;0.10;;
61272;SDS011;47150;53.032;8.960;2023-04-24T03:22:33;0.40;;;0.40;;
61272;SDS011;47150;53.032;8.960;2023-04-24T03:24:59;0.30;;;0.30;;
61272;SDS011;47150;53.032;8.960;2023-04-24T03:27:24;0.93;;;0.87;;
61272;SDS011;47150;53.032;8.960;2023-04-24T03:29:50;1.20;;;0.77;;
61272;SDS011;47150;53.032;8.960;2023-04-24T03:32:20;0.20;;;0.20;;
61272;SDS011;47150;53.032;8.960;2023-04-24T03:34:47;0.60;;;0.60;;
61272;SDS011;47150;53.032;8.960;2023-04-24T03:37:12;0.60;;;0.60;;
61272;SDS011;47150;53.032;8.960;2023-04-24T03:39:38;0.70;;;0.70;;
61272;SDS011;47150;53.032;8.960;2023-04-24T03:42:03;0.47;;;0.47;;
61272;SDS011;47150;53.032;8.960;2023-04-24T03:44:28;0.60;;;0.60;;
61272;SDS011;47150;53.032;8.960;2023-04-24T03:46:54;0.87;;;0.73;;
61272;SDS011;47150;53.032;8.960;2023-04-24T03:49:19;0.20;;;0.20;;
61272;SDS011;47150;53.032;8.960;2023-04-24T03:51:45;0.30;;;0.30;;
61272;SDS011;47150;53.032;8.960;2023-04-24T03:54:10;0.43;;;0.43;;
61272;SDS011;47150;53.032;8.960;2023-04-24T03:56:36;0.30;;;0.30;;
61272;SDS011;47150;53.032;8.960;2023-04-24T03:59:01;0.80;;;0.80;;
61272;SDS011;47150;53.032;8.960;2023-04-24T04:01:27;0.30;;;0.30;;
61272;SDS011;47150;53.032;8.960;2023-04-24T04:03:53;0.37;;;0.37;;
61272;SDS011;47150;53.032;8.960;2023-04-24T04:06:18;0.23;;;0.23;;
61272;SDS011;47150;53.032;8.960;2023-04-24T04:08:44;0.50;;;0.50;;
61272;SDS011;47150;53.032;8.960;2023-04-24T04:11:09;0.43;;;0.43;;
61272;SDS011;47150;53.032;8.960;2023-04-24T04:13:35;0.60;;;0.60;;
61272;SDS011;47150;53.032;8.960;2023-04-24T04:16:00;0.10;;;0.10;;
61272;SDS011;47150;53.032;8.960;2023-04-24T04:18:25;1.17;;;0.63;;
61272;SDS011;47150;53.032;8.960;2023-04-24T04:20:51;0.50;;;0.50;;
61272;SDS011;47150;53.032;8.960;2023-04-24T04:23:16;0.43;;;0.43;;
61272;SDS011;47150;53.032;8.960;2023-04-24T04:25:42;0.40;;;0.40;;
61272;SDS011;47150;53.032;8.960;2023-04-24T04:28:07;0.33;;;0.33;;
61272;SDS011;47150;53.032;8.960;2023-04-24T04:30:32;0.40;;;0.40;;
61272;SDS011;47150;53.032;8.960;2023-04-24T04:32:58;0.20;;;0.20;;
61272;SDS011;47150;53.032;8.960;2023-04-24T04:35:24;0.57;;;0.57;;
61272;SDS011;47150;53.032;8.960;2023-04-24T04:37:50;0.10;;;0.10;;
61272;SDS011;47150;53.032;8.960;2023-04-24T04:40:16;0.20;;;0.20;;
61272;SDS011;47150;53.032;8.960;2023-04-24T04:42:41;0.30;;;0.30;;
61272;SDS011;47150;53.032;8.960;2023-04-24T04:45:07;0.70;;;0.70;;
61272;SDS011;47150;53.032;8.960;2023-04-24T04:47:36;0.50;;;0.50;;
61272;SDS011;47150;53.032;8.960;2023-04-24T04:50:02;0.37;;;0.30;;
61272;SDS011;47150;53.032;8.960;2023-04-24T04:52:28;0.27;;;0.27;;
61272;SDS011;47150;53.032;8.960;2023-04-24T04:54:54;0.60;;;0.60;;
61272;SDS011;47150;53.032;8.960;2023-04-24T04:57:20;1.03;;;0.93;;
61272;SDS011;47150;53.032;8.960;2023-04-24T04:59:46;0.80;;;0.80;;
61272;SDS011;47150;53.032;8.960;2023-04-24T05:02:11;0.63;;;0.63;;
61272;SDS011;47150;53.032;8.960;2023-04-24T05:04:37;1.60;;;1.50;;
61272;SDS011;47150;53.032;8.960;2023-04-24T05:07:02;0.20;;;0.20;;
61272;SDS011;47150;53.032;8.960;2023-04-24T05:09:28;0.70;;;0.70;;
61272;SDS011;47150;53.032;8.960;2023-04-24T05:11:54;0.40;;;0.30;;
61272;SDS011;47150;53.032;8.960;2023-04-24T05:14:20;0.60;;;0.60;;
61272;SDS011;47150;53.032;8.960;2023-04-24T05:16:45;0.23;;;0.23;;
61272;SDS011;47150;53.032;8.960;2023-04-24T05:19:11;0.87;;;0.87;;
61272;SDS011;47150;53.032;8.960;2023-04-24T05:21:38;0.50;;;0.50;;
61272;SDS011;47150;53.032;8.960;2023-04-24T05:24:04;1.07;;;1.07;;
61272;SDS011;47150;53.032;8.960;2023-04-24T05:26:30;0.50;;;0.50;;
61272;SDS011;47150;53.032;8.960;2023-04-24T05:28:55;0.93;;;0.93;;
61272;SDS011;47150;53.032;8.960;2023-04-24T05:31:21;1.23;;;1.10;;
61272;SDS011;47150;53.032;8.960;2023-04-24T05:33:46;0.53;;;0.53;;
61272;SDS011;47150;53.032;8.960;2023-04-24T05:36:11;2.10;;;0.90;;
61272;SDS011;47150;53.032;8.960;2023-04-24T05:38:37;2.67;;;1.03;;
61272;SDS011;47150;53.032;8.960;2023-04-24T05:41:03;0.70;;;0.70;;
61272;SDS011;47150;53.032;8.960;2023-04-24T05:43:28;1.43;;;1.33;;
61272;SDS011;47150;53.032;8.960;2023-04-24T05:45:53;1.80;;;1.63;;
61272;SDS011;47150;53.032;8.960;2023-04-24T05:48:19;2.93;;;1.37;;
61272;SDS011;47150;53.032;8.960;2023-04-24T05:50:44;0.83;;;0.83;;
61272;SDS011;47150;53.032;8.960;2023-04-24T05:53:10;0.40;;;0.40;;
61272;SDS011;47150;53.032;8.960;2023-04-24T05:55:35;0.80;;;0.80;;
61272;SDS011;47150;53.032;8.960;2023-04-24T05:58:01;1.17;;;1.07;;
61272;SDS011;47150;53.032;8.960;2023-04-24T06:00:26;1.80;;;1.33;;
61272;SDS011;47150;53.032;8.960;2023-04-24T06:02:52;1.73;;;1.60;;
61272;SDS011;47150;53.032;8.960;2023-04-24T06:05:17;1.30;;;1.23;;
61272;SDS011;47150;53.032;8.960;2023-04-24T06:07:43;1.47;;;1.37;;
61272;SDS011;47150;53.032;8.960;2023-04-24T06:10:09;1.50;;;1.40;;
61272;SDS011;47150;53.032;8.960;2023-04-24T06:12:35;2.47;;;2.10;;
61272;SDS011;47150;53.032;8.960;2023-04-24T06:15:01;1.43;;;1.33;;
61272;SDS011;47150;53.032;8.960;2023-04-24T06:17:27;2.00;;;1.70;;
61272;SDS011;47150;53.032;8.960;2023-04-24T06:19:52;1.20;;;1.10;;
61272;SDS011;47150;53.032;8.960;2023-04-24T06:22:18;1.60;;;0.93;;
61272;SDS011;47150;53.032;8.960;2023-04-24T06:24:43;2.30;;;1.73;;
61272;SDS011;47150;53.032;8.960;2023-04-24T06:27:08;1.03;;;0.87;;
61272;SDS011;47150;53.032;8.960;2023-04-24T06:29:35;2.10;;;1.80;;
61272;SDS011;47150;53.032;8.960;2023-04-24T06:32:01;3.97;;;1.90;;
61272;SDS011;47150;53.032;8.960;2023-04-24T06:34:27;2.80;;;2.50;;
61272;SDS011;47150;53.032;8.960;2023-04-24T06:36:52;1.47;;;1.37;;
61272;SDS011;47150;53.032;8.960;2023-04-24T06:39:19;1.47;;;1.37;;
61272;SDS011;47150;53.032;8.960;2023-04-24T06:41:45;2.77;;;2.43;;
61272;SDS011;47150;53.032;8.960;2023-04-24T06:44:10;1.87;;;1.77;;
61272;SDS011;47150;53.032;8.960;2023-04-24T06:46:36;3.30;;;2.53;;
61272;SDS011;47150;53.032;8.960;2023-04-24T06:49:01;3.70;;;2.77;;
61272;SDS011;47150;53.032;8.960;2023-04-24T06:51:26;3.83;;;3.23;;
61272;SDS011;47150;53.032;8.960;2023-04-24T06:53:55;2.40;;;1.97;;
61272;SDS011;47150;53.032;8.960;2023-04-24T06:56:23;3.97;;;3.33;;
61272;SDS011;47150;53.032;8.960;2023-04-24T06:58:48;2.70;;;2.20;;
61272;SDS011;47150;53.032;8.960;2023-04-24T07:01:14;1.83;;;1.73;;
61272;SDS011;47150;53.032;8.960;2023-04-24T07:03:39;4.70;;;4.30;;
61272;SDS011;47150;53.032;8.960;2023-04-24T07:06:05;2.43;;;2.23;;
61272;SDS011;47150;53.032;8.960;2023-04-24T07:08:31;6.27;;;3.40;;
61272;SDS011;47150;53.032;8.960;2023-04-24T07:10:58;3.67;;;2.97;;
61272;SDS011;47150;53.032;8.960;2023-04-24T07:13:24;5.07;;;1.93;;
61272;SDS011;47150;53.032;8.960;2023-04-24T07:15:49;1.50;;;1.37;;
61272;SDS011;47150;53.032;8.960;2023-04-24T07:18:15;4.87;;;3.70;;
61272;SDS011;47150;53.032;8.960;2023-04-24T07:20:41;4.47;;;4.07;;
61272;SDS011;47150;53.032;8.960;2023-04-24T07:23:07;3.03;;;2.77;;
61272;SDS011;47150;53.032;8.960;2023-04-24T07:25:32;3.50;;;3.13;;
61272;SDS011;47150;53.032;8.960;2023-04-24T07:27:58;4.67;;;3.67;;
61272;SDS011;47150;53.032;8.960;2023-04-24T07:30:23;5.23;;;3.40;;
61272;SDS011;47150;53.032;8.960;2023-04-24T07:32:49;3.20;;;2.90;;
61272;SDS011;47150;53.032;8.960;2023-04-24T07:35:15;3.77;;;2.73;;
61272;SDS011;47150;53.032;8.960;2023-04-24T07:37:40;1.53;;;1.43;;
61272;SDS011;47150;53.032;8.960;2023-04-24T07:40:10;2.57;;;2.37;;
61272;SDS011;47150;53.032;8.960;2023-04-24T07:42:37;5.27;;;2.80;;
61272;SDS011;47150;53.032;8.960;2023-04-24T07:45:03;1.93;;;1.77;;
61272;SDS011;47150;53.032;8.960;2023-04-24T07:47:29;2.07;;;1.60;;
61272;SDS011;47150;53.032;8.960;2023-04-24T07:49:54;1.73;;;1.50;;
61272;SDS011;47150;53.032;8.960;2023-04-24T07:52:20;2.17;;;1.77;;
61272;SDS011;47150;53.032;8.960;2023-04-24T07:54:45;1.83;;;1.60;;
61272;SDS011;47150;53.032;8.960;2023-04-24T07:57:10;4.13;;;3.33;;
61272;SDS011;47150;53.032;8.960;2023-04-24T07:59:36;1.43;;;1.33;;
61272;SDS011;47150;53.032;8.960;2023-04-24T08:02:01;1.60;;;1.43;;
61272;SDS011;47150;53.032;8.960;2023-04-24T08:04:26;11.83;;;4.17;;
61272;SDS011;47150;53.032;8.960;2023-04-24T08:06:52;1.43;;;1.33;;
61272;SDS011;47150;53.032;8.960;2023-04-24T08:09:17;3.97;;;3.30;;
61272;SDS011;47150;53.032;8.960;2023-04-24T08:11:43;2.63;;;2.43;;
61272;SDS011;47150;53.032;8.960;2023-04-24T08:14:08;3.47;;;2.67;;
61272;SDS011;47150;53.032;8.960;2023-04-24T08:16:34;3.80;;;3.00;;
61272;SDS011;47150;53.032;8.960;2023-04-24T08:19:00;5.27;;;4.60;;
61272;SDS011;47150;53.032;8.960;2023-04-24T08:21:25;9.17;;;8.27;;
61272;SDS011;47150;53.032;8.960;2023-04-24T08:23:52;5.93;;;1.90;;
61272;SDS011;47150;53.032;8.960;2023-04-24T08:26:17;3.33;;;2.73;;
61272;SDS011;47150;53.032;8.960;2023-04-24T08:28:43;5.07;;;4.33;;
61272;SDS011;47150;53.032;8.960;2023-04-24T08:31:08;2.57;;;2.37;;
61272;SDS011;47150;53.032;8.960;2023-04-24T08:33:33;6.47;;;5.00;;
61272;SDS011;47150;53.032;8.960;2023-04-24T08:36:03;2.43;;;2.23;;
61272;SDS011;47150;53.032;8.960;2023-04-24T08:38:29;4.17;;;3.77;;
61272;SDS011;47150;53.032;8.960;2023-04-24T08:40:56;5.43;;;4.00;;
61272;SDS011;47150;53.032;8.960;2023-04-24T08:43:23;2.93;;;2.63;;
61272;SDS011;47150;53.032;8.960;2023-04-24T08:45:49;3.90;;;2.67;;
61272;SDS011;47150;53.032;8.960;2023-04-24T08:48:15;2.23;;;1.87;;
61272;SDS011;47150;53.032;8.960;2023-04-24T08:50:42;1.13;;;1.13;;
61272;SDS011;47150;53.032;8.960;2023-04-24T08:53:09;6.13;;;3.93;;
61272;SDS011;47150;53.032;8.960;2023-04-24T08:55:35;1.53;;;1.40;;
61272;SDS011;47150;53.032;8.960;2023-04-24T08:58:01;8.67;;;3.13;;
61272;SDS011;47150;53.032;8.960;2023-04-24T09:00:27;3.50;;;2.00;;
61272;SDS011;47150;53.032;8.960;2023-04-24T09:02:53;4.80;;;3.00;;
61272;SDS011;47150;53.032;8.960;2023-04-24T09:05:20;6.47;;;2.97;;
61272;SDS011;47150;53.032;8.960;2023-04-24T09:07:53;4.90;;;4.13;;
61272;SDS011;47150;53.032;8.960;2023-04-24T09:10:20;2.53;;;2.10;;
61272;SDS011;47150;53.032;8.960;2023-04-24T09:12:46;3.10;;;2.80;;
61272;SDS011;47150;53.032;8.960;2023-04-24T09:15:12;5.17;;;3.13;;
61272;SDS011;47150;53.032;8.960;2023-04-24T09:17:37;4.57;;;3.57;;
61272;SDS011;47150;53.032;8.960;2023-04-24T09:20:03;0.80;;;0.80;;
61272;SDS011;47150;53.032;8.960;2023-04-24T09:22:32;4.33;;;2.93;;
61272;SDS011;47150;53.032;8.960;2023-04-24T09:25:02;4.70;;;3.83;;
61272;SDS011;47150;53.032;8.960;2023-04-24T09:27:32;5.07;;;3.73;;
61272;SDS011;47150;53.032;8.960;2023-04-24T09:29:58;6.17;;;5.33;;
61272;SDS011;47150;53.032;8.960;2023-04-24T09:32:24;12.23;;;6.70;;
61272;SDS011;47150;53.032;8.960;2023-04-24T09:35:04;7.83;;;6.90;;
61272;SDS011;47150;53.032;8.960;2023-04-24T09:37:36;7.07;;;4.87;;
61272;SDS011;47150;53.032;8.960;2023-04-24T09:40:11;3.40;;;3.07;;
61272;SDS011;47150;53.032;8.960;2023-04-24T09:42:37;7.77;;;5.93;;
61272;SDS011;47150;53.032;8.960;2023-04-24T09:45:03;4.73;;;1.40;;
61272;SDS011;47150;53.032;8.960;2023-04-24T09:47:38;4.40;;;2.43;;
61272;SDS011;47150;53.032;8.960;2023-04-24T09:50:14;3.20;;;2.20;;
61272;SDS011;47150;53.032;8.960;2023-04-24T09:52:45;5.80;;;3.40;;
61272;SDS011;47150;53.032;8.960;2023-04-24T09:55:19;6.00;;;4.73;;
61272;SDS011;47150;53.032;8.960;2023-04-24T09:57:51;2.60;;;2.40;;
61272;SDS011;47150;53.032;8.960;2023-04-24T10:00:19;3.03;;;2.43;;
61272;SDS011;47150;53.032;8.960;2023-04-24T10:02:51;1.73;;;1.63;;
61272;SDS011;47150;53.032;8.960;2023-04-24T10:05:22;5.23;;;3.77;;
61272;SDS011;47150;53.032;8.960;2023-04-24T10:07:48;2.23;;;2.10;;
61272;SDS011;47150;53.032;8.960;2023-04-24T10:10:14;3.63;;;3.27;;
61272;SDS011;47150;53.032;8.960;2023-04-24T10:12:40;1.63;;;1.50;;
61272;SDS011;47150;53.032;8.960;2023-04-24T10:15:06;3.97;;;3.40;;
61272;SDS011;47150;53.032;8.960;2023-04-24T10:17:32;2.33;;;2.13;;
61272;SDS011;47150;53.032;8.960;2023-04-24T10:19:58;5.27;;;2.13;;
61272;SDS011;47150;53.032;8.960;2023-04-24T10:22:26;0.77;;;0.77;;
61272;SDS011;47150;53.032;8.960;2023-04-24T10:24:52;2.57;;;2.30;;
61272;SDS011;47150;53.032;8.960;2023-04-24T10:27:17;2.97;;;2.03;;
61272;SDS011;47150;53.032;8.960;2023-04-24T10:29:46;1.17;;;1.07;;
61272;SDS011;47150;53.032;8.960;2023-04-24T10:32:12;3.43;;;2.87;;
61272;SDS011;47150;53.032;8.960;2023-04-24T10:34:38;4.30;;;3.13;;
61272;SDS011;47150;53.032;8.960;2023-04-24T10:37:03;3.83;;;3.53;;
61272;SDS011;47150;53.032;8.960;2023-04-24T10:39:28;3.80;;;3.17;;
61272;SDS011;47150;53.032;8.960;2023-04-24T10:41:55;1.60;;;1.30;;
61272;SDS011;47150;53.032;8.960;2023-04-24T10:44:24;4.57;;;2.93;;
61272;SDS011;47150;53.032;8.960;2023-04-24T10:46:52;5.23;;;3.00;;
61272;SDS011;47150;53.032;8.960;2023-04-24T10:49:27;1.87;;;1.57;;
61272;SDS011;47150;53.032;8.960;2023-04-24T10:51:54;2.23;;;2.03;;
61272;SDS011;47150;53.032;8.960;2023-04-24T10:54:34;2.83;;;2.53;;
61272;SDS011;47150;53.032;8.960;2023-04-24T10:59:47;1.97;;;1.50;;
61272;SDS011;47150;53.032;8.960;2023-04-24T11:02:17;1.77;;;1.67;;
61272;SDS011;47150;53.032;8.960;2023-04-24T11:04:43;3.10;;;1.87;;
61272;SDS011;47150;53.032;8.960;2023-04-24T11:07:10;4.60;;;3.70;;
61272;SDS011;47150;53.032;8.960;2023-04-24T11:09:36;3.23;;;2.73;;
61272;SDS011;47150;53.032;8.960;2023-04-24T11:12:05;1.20;;;1.20;;
61272;SDS011;47150;53.032;8.960;2023-04-24T11:17:34;3.17;;;1.83;;
61272;SDS011;47150;53.032;8.960;2023-04-24T11:20:08;3.37;;;2.37;;
61272;SDS011;47150;53.032;8.960;2023-04-24T11:22:37;1.27;;;1.17;;
61272;SDS011;47150;53.032;8.960;2023-04-24T11:25:05;3.23;;;2.93;;
61272;SDS011;47150;53.032;8.960;2023-04-24T11:27:34;1.80;;;1.67;;
61272;SDS011;47150;53.032;8.960;2023-04-24T11:30:04;5.20;;;3.37;;
61272;SDS011;47150;53.032;8.960;2023-04-24T11:34:59;1.53;;;1.43;;
61272;SDS011;47150;53.032;8.960;2023-04-24T11:37:27;2.87;;;2.60;;
61272;SDS011;47150;53.032;8.960;2023-04-24T11:39:58;2.23;;;2.03;;
61272;SDS011;47150;53.032;8.960;2023-04-24T11:42:23;0.60;;;0.60;;
61272;SDS011;47150;53.032;8.960;2023-04-24T11:44:51;2.10;;;1.53;;
61272;SDS011;47150;53.032;8.960;2023-04-24T11:47:18;1.30;;;1.23;;
61272;SDS011;47150;53.032;8.960;2023-04-24T11:49:44;1.83;;;1.73;;
61272;SDS011;47150;53.032;8.960;2023-04-24T11:52:09;1.13;;;1.03;;
61272;SDS011;47150;53.032;8.960;2023-04-24T11:54:35;1.40;;;1.30;;
61272;SDS011;47150;53.032;8.960;2023-04-24T11:57:03;0.97;;;0.97;;
61272;SDS011;47150;53.032;8.960;2023-04-24T11:59:35;1.80;;;1.70;;
61272;SDS011;47150;53.032;8.960;2023-04-24T12:02:01;1.23;;;1.13;;
61272;SDS011;47150;53.032;8.960;2023-04-24T12:04:27;2.27;;;2.07;;
61272;SDS011;47150;53.032;8.960;2023-04-24T12:07:03;1.70;;;1.60;;
61272;SDS011;47150;53.032;8.960;2023-04-24T12:09:46;1.97;;;1.87;;
61272;SDS011;47150;53.032;8.960;2023-04-24T12:12:13;2.10;;;0.83;;
61272;SDS011;47150;53.032;8.960;2023-04-24T12:14:48;1.90;;;1.77;;
61272;SDS011;47150;53.032;8.960;2023-04-24T12:17:23;1.00;;;0.90;;
61272;SDS011;47150;53.032;8.960;2023-04-24T12:19:50;1.00;;;0.93;;
61272;SDS011;47150;53.032;8.960;2023-04-24T12:22:16;1.17;;;1.07;;
61272;SDS011;47150;53.032;8.960;2023-04-24T12:24:57;0.93;;;0.77;;
61272;SDS011;47150;53.032;8.960;2023-04-24T12:27:23;1.40;;;1.07;;
61272;SDS011;47150;53.032;8.960;2023-04-24T12:29:53;1.20;;;1.10;;
61272;SDS011;47150;53.032;8.960;2023-04-24T12:32:21;1.93;;;1.83;;
61272;SDS011;47150;53.032;8.960;2023-04-24T12:34:47;0.70;;;0.70;;
61272;SDS011;47150;53.032;8.960;2023-04-24T12:37:14;0.10;;;0.10;;
61272;SDS011;47150;53.032;8.960;2023-04-24T12:39:44;0.77;;;0.77;;
61272;SDS011;47150;53.032;8.960;2023-04-24T12:42:32;1.00;;;0.97;;
61272;SDS011;47150;53.032;8.960;2023-04-24T12:44:59;0.40;;;0.40;;
61272;SDS011;47150;53.032;8.960;2023-04-24T12:47:26;0.70;;;0.70;;
61272;SDS011;47150;53.032;8.960;2023-04-24T12:49:52;0.37;;;0.37;;
61272;SDS011;47150;53.032;8.960;2023-04-24T12:52:21;0.70;;;0.70;;
61272;SDS011;47150;53.032;8.960;2023-04-24T12:54:49;0.83;;;0.83;;
61272;SDS011;47150;53.032;8.960;2023-04-24T12:57:23;0.77;;;0.77;;
61272;SDS011;47150;53.032;8.960;2023-04-24T12:59:53;0.67;;;0.67;;
61272;SDS011;47150;53.032;8.960;2023-04-24T13:02:20;1.70;;;1.47;;
61272;SDS011;47150;53.032;8.960;2023-04-24T13:04:47;1.57;;;1.20;;
61272;SDS011;47150;53.032;8.960;2023-04-24T13:07:13;2.57;;;1.53;;
61272;SDS011;47150;53.032;8.960;2023-04-24T13:09:39;1.47;;;1.37;;
61272;SDS011;47150;53.032;8.960;2023-04-24T13:12:08;1.73;;;1.47;;
61272;SDS011;47150;53.032;8.960;2023-04-24T13:14:35;1.40;;;1.30;;
61272;SDS011;47150;53.032;8.960;2023-04-24T13:17:00;2.10;;;1.90;;
61272;SDS011;47150;53.032;8.960;2023-04-24T13:19:26;5.10;;;2.13;;
61272;SDS011;47150;53.032;8.960;2023-04-24T13:21:52;4.83;;;1.70;;
61272;SDS011;47150;53.032;8.960;2023-04-24T13:24:20;1.67;;;1.57;;
61272;SDS011;47150;53.032;8.960;2023-04-24T13:26:45;4.90;;;3.83;;
61272;SDS011;47150;53.032;8.960;2023-04-24T13:29:11;3.17;;;2.30;;
61272;SDS011;47150;53.032;8.960;2023-04-24T13:31:36;0.97;;;0.90;;
61272;SDS011;47150;53.032;8.960;2023-04-24T13:34:02;1.63;;;1.27;;
61272;SDS011;47150;53.032;8.960;2023-04-24T13:36:28;4.03;;;3.30;;
61272;SDS011;47150;53.032;8.960;2023-04-24T13:38:55;1.43;;;1.33;;
61272;SDS011;47150;53.032;8.960;2023-04-24T13:41:20;1.33;;;1.23;;
61272;SDS011;47150;53.032;8.960;2023-04-24T13:43:45;1.60;;;1.50;;
61272;SDS011;47150;53.032;8.960;2023-04-24T13:46:11;3.83;;;2.63;;
61272;SDS011;47150;53.032;8.960;2023-04-24T13:48:36;3.43;;;2.50;;
61272;SDS011;47150;53.032;8.960;2023-04-24T13:51:02;4.40;;;2.03;;
61272;SDS011;47150;53.032;8.960;2023-04-24T13:53:27;2.97;;;2.57;;
61272;SDS011;47150;53.032;8.960;2023-04-24T13:55:52;5.47;;;4.47;;
61272;SDS011;47150;53.032;8.960;2023-04-24T13:58:18;2.30;;;1.37;;
61272;SDS011;47150;53.032;8.960;2023-04-24T14:00:43;1.57;;;1.47;;
61272;SDS011;47150;53.032;8.960;2023-04-24T14:03:09;1.57;;;1.47;;
61272;SDS011;47150;53.032;8.960;2023-04-24T14:05:34;0.17;;;0.17;;
61272;SDS011;47150;53.032;8.960;2023-04-24T14:07:59;0.93;;;0.87;;
61272;SDS011;47150;53.032;8.960;2023-04-24T14:10:25;5.47;;;2.30;;
61272;SDS011;47150;53.032;8.960;2023-04-24T14:12:52;1.90;;;1.67;;
61272;SDS011;47150;53.032;8.960;2023-04-24T14:15:18;2.17;;;1.93;;
61272;SDS011;47150;53.032;8.960;2023-04-24T14:17:43;5.80;;;2.93;;
61272;SDS011;47150;53.032;8.960;2023-04-24T14:20:09;1.87;;;1.77;;
61272;SDS011;47150;53.032;8.960;2023-04-24T14:22:35;1.23;;;1.20;;
61272;SDS011;47150;53.032;8.960;2023-04-24T14:25:00;3.00;;;1.73;;
61272;SDS011;47150;53.032;8.960;2023-04-24T14:27:25;0.83;;;0.83;;
61272;SDS011;47150;53.032;8.960;2023-04-24T14:29:51;0.80;;;0.80;;
61272;SDS011;47150;53.032;8.960;2023-04-24T14:32:17;2.90;;;1.47;;
61272;SDS011;47150;53.032;8.960;2023-04-24T14:34:43;7.03;;;2.30;;
61272;SDS011;47150;53.032;8.960;2023-04-24T14:37:08;1.07;;;1.00;;
61272;SDS011;47150;53.032;8.960;2023-04-24T14:39:33;6.43;;;1.90;;
61272;SDS011;47150;53.032;8.960;2023-04-24T14:41:59;1.57;;;1.47;;
61272;SDS011;47150;53.032;8.960;2023-04-24T14:44:25;2.77;;;2.20;;
61272;SDS011;47150;53.032;8.960;2023-04-24T14:46:51;5.13;;;2.13;;
61272;SDS011;47150;53.032;8.960;2023-04-24T14:49:16;1.87;;;1.77;;
61272;SDS011;47150;53.032;8.960;2023-04-24T14:51:42;1.23;;;1.23;;